Time;durP1;ratioP1;P1;durP2;ratioP2;P2;SDS_P1;SDS_P2;PMS_P1;PMS_P2;Temp;Humidity;BMP_temperature;BMP_pressure;BME280_temperature;BME280_humidity;BME280_pressure;Samples;Min_cycle;Max_cycle;Signal;HPM_P1;HPM_P2
2023/09/11 00:00:34;;;;;;;25.63;18.65;;;19.00;99.90;;;;;;4951509;28;20050;-77
2023/09/11 00:03:00;;;;;;;26.02;19.20;;;19.00;99.90;;;;;;4953019;28;20058;-77
2023/09/11 00:05:26;;;;;;;29.73;19.48;;;;;;;;;;4947295;28;20121;-77
2023/09/11 00:07:52;;;;;;;23.75;20.23;;;19.00;99.90;;;;;;4945980;28;20149;-76
2023/09/11 00:10:17;;;;;;;31.27;19.20;;;19.00;99.90;;;;;;4956290;28;20064;-78
2023/09/11 00:12:43;;;;;;;29.60;19.45;;;19.00;99.90;;;;;;4950495;28;20069;-76
2023/09/11 00:15:09;;;;;;;23.52;19.95;;;19.00;99.90;;;;;;4952239;28;20065;-77
2023/09/11 00:17:35;;;;;;;23.77;19.00;;;;;;;;;;4946050;28;20054;-77
2023/09/11 00:20:09;;;;;;;26.38;20.23;;;;;;;;;;4950462;28;20058;-77
2023/09/11 00:22:35;;;;;;;29.58;18.50;;;;;;;;;;4947710;28;20062;-78
2023/09/11 00:25:02;;;;;;;27.50;19.00;;;;;;;;;;4948482;28;20066;-76
2023/09/11 00:27:27;;;;;;;22.33;20.02;;;19.00;99.90;;;;;;4938967;28;20198;-76
2023/09/11 00:29:53;;;;;;;30.88;20.80;;;19.00;99.90;;;;;;4955069;28;20066;-80
2023/09/11 00:32:19;;;;;;;27.92;19.50;;;19.00;99.90;;;;;;4947825;28;20420;-76
2023/09/11 00:34:45;;;;;;;26.50;20.70;;;19.00;99.90;;;;;;4944404;28;20519;-77
2023/09/11 00:37:10;;;;;;;30.50;21.02;;;19.00;99.90;;;;;;4951153;28;20050;-77
2023/09/11 00:39:36;;;;;;;24.23;19.48;;;19.00;99.90;;;;;;4948201;28;20054;-77
2023/09/11 00:42:02;;;;;;;22.20;19.92;;;19.00;99.90;;;;;;4949045;28;20071;-81
2023/09/11 00:44:29;;;;;;;30.77;20.35;;;19.00;99.90;;;;;;4956524;28;21004;-86
2023/09/11 00:46:55;;;;;;;27.25;20.23;;;19.00;99.90;;;;;;4945839;28;20094;-79
2023/09/11 00:49:22;;;;;;;28.60;20.02;;;18.90;99.90;;;;;;4951268;28;20149;-76
2023/09/11 00:51:50;;;;;;;27.45;19.60;;;18.90;99.90;;;;;;4936649;28;20065;-76
2023/09/11 00:54:18;;;;;;;29.63;20.60;;;19.40;99.90;;;;;;4949836;28;20145;-79
2023/09/11 00:56:46;;;;;;;26.90;19.42;;;18.90;99.90;;;;;;4940757;28;20062;-81
2023/09/11 00:59:13;;;;;;;29.77;20.83;;;18.90;99.90;;;;;;4947838;28;20065;-77
2023/09/11 01:01:42;;;;;;;28.73;20.20;;;18.90;99.90;;;;;;4949970;28;20057;-78
2023/09/11 01:04:09;;;;;;;26.30;20.20;;;18.80;99.90;;;;;;4955620;28;20928;-76
2023/09/11 01:06:34;;;;;;;28.35;19.98;;;18.90;99.90;;;;;;4974595;28;20104;-76
2023/09/11 01:09:02;;;;;;;30.08;20.33;;;18.80;99.90;;;;;;4959257;28;20141;-76
2023/09/11 01:11:27;;;;;;;27.80;19.85;;;18.80;99.90;;;;;;4958053;28;20683;-78
2023/09/11 01:13:54;;;;;;;26.15;20.10;;;18.80;99.90;;;;;;4940383;28;20058;-77
2023/09/11 01:16:29;;;;;;;24.65;20.52;;;18.80;99.90;;;;;;4952821;28;20062;-79
2023/09/11 01:19:17;;;;;;;27.30;20.23;;;18.80;99.90;;;;;;4947451;28;20574;-76
2023/09/11 01:22:04;;;;;;;26.45;19.95;;;18.80;99.90;;;;;;4942388;28;20352;-78
2023/09/11 01:24:51;;;;;;;27.63;19.77;;;18.80;99.90;;;;;;4942525;28;20054;-78
2023/09/11 01:27:31;;;;;;;24.40;19.33;;;18.80;99.90;;;;;;4961295;28;20058;-82
2023/09/11 01:29:59;;;;;;;29.42;20.33;;;18.80;99.90;;;;;;4953536;28;20073;-76
2023/09/11 01:32:25;;;;;;;25.27;20.23;;;18.80;99.90;;;;;;4952624;28;20063;-78
2023/09/11 01:34:52;;;;;;;24.17;19.98;;;;;;;;;;4968639;28;20137;-77
2023/09/11 01:37:17;;;;;;;33.53;20.85;;;18.70;99.90;;;;;;4977082;28;20060;-77
2023/09/11 01:39:43;;;;;;;23.60;20.25;;;18.70;99.90;;;;;;4952589;28;20059;-76
2023/09/11 01:42:13;;;;;;;29.33;21.83;;;18.60;99.90;;;;;;4952032;28;20094;-77
2023/09/11 01:44:47;;;;;;;31.80;20.40;;;18.60;99.90;;;;;;4958347;28;20042;-76
2023/09/11 01:47:16;;;;;;;26.60;19.42;;;18.70;99.90;;;;;;4971169;28;20069;-78
2023/09/11 01:49:44;;;;;;;23.23;20.63;;;18.60;99.90;;;;;;4951283;28;20081;-77
2023/09/11 01:52:11;;;;;;;28.13;21.00;;;18.60;99.90;;;;;;4951451;28;20066;-77
2023/09/11 01:54:37;;;;;;;25.33;20.13;;;18.50;99.90;;;;;;4959930;28;20924;-77
2023/09/11 01:57:05;;;;;;;32.75;22.27;;;18.50;99.90;;;;;;4950856;28;20459;-76
2023/09/11 01:59:31;;;;;;;27.50;20.48;;;18.70;99.90;;;;;;4939647;28;20598;-77
2023/09/11 02:01:57;;;;;;;29.48;20.65;;;18.50;99.90;;;;;;4946763;28;20054;-77
2023/09/11 02:04:23;;;;;;;25.58;20.17;;;18.50;99.90;;;;;;4955698;28;20811;-78
2023/09/11 02:06:48;;;;;;;26.27;20.13;;;18.50;99.90;;;;;;4957671;28;20054;-78
2023/09/11 02:09:14;;;;;;;26.10;20.55;;;18.40;99.90;;;;;;4952979;28;20070;-77
2023/09/11 02:11:40;;;;;;;23.27;19.92;;;18.40;99.90;;;;;;4950071;28;20063;-79
2023/09/11 02:14:05;;;;;;;25.95;21.27;;;18.40;99.90;;;;;;4947480;28;20066;-77
2023/09/11 02:16:31;;;;;;;27.13;20.80;;;18.40;99.90;;;;;;4965139;28;20061;-78
2023/09/11 02:18:57;;;;;;;25.02;20.02;;;18.40;99.90;;;;;;4957139;28;20062;-77
2023/09/11 02:21:23;;;;;;;33.15;21.10;;;18.40;99.90;;;;;;4945189;28;20054;-78
2023/09/11 02:23:48;;;;;;;29.77;21.80;;;18.40;99.90;;;;;;4956647;28;20113;-77
2023/09/11 02:26:14;;;;;;;33.00;21.15;;;18.30;99.90;;;;;;4958931;28;20419;-77
2023/09/11 02:28:40;;;;;;;29.85;21.20;;;18.30;99.90;;;;;;4958427;28;20058;-77
2023/09/11 02:31:06;;;;;;;28.70;22.70;;;18.30;99.90;;;;;;4952816;28;20094;-78
2023/09/11 02:33:32;;;;;;;27.85;21.85;;;18.30;99.90;;;;;;4953666;28;20519;-81
2023/09/11 02:35:59;;;;;;;29.10;21.70;;;18.30;99.90;;;;;;4942999;28;20069;-77
2023/09/11 02:38:25;;;;;;;29.15;22.45;;;18.20;99.90;;;;;;4950120;28;20058;-77
2023/09/11 02:40:51;;;;;;;30.55;22.02;;;18.20;99.90;;;;;;4950867;28;20069;-76
2023/09/11 02:43:17;;;;;;;28.60;22.75;;;18.20;99.90;;;;;;4958819;28;20728;-76
2023/09/11 02:45:43;;;;;;;25.27;22.58;;;18.10;99.90;;;;;;4953627;28;20054;-76
2023/09/11 02:48:10;;;;;;;27.85;22.45;;;18.10;99.90;;;;;;4947321;28;20058;-76
2023/09/11 02:50:36;;;;;;;36.63;24.00;;;18.10;99.90;;;;;;4956587;28;20472;-76
2023/09/11 02:53:01;;;;;;;32.75;23.40;;;18.10;99.90;;;;;;4958012;28;20083;-76
2023/09/11 02:55:27;;;;;;;32.33;22.42;;;20.60;99.90;;;;;;4947066;28;20543;-77
2023/09/11 02:57:53;;;;;;;32.40;23.85;;;18.00;99.90;;;;;;4942510;28;20599;-77
2023/09/11 03:00:18;;;;;;;27.33;22.77;;;18.00;99.90;;;;;;4942729;28;20139;-75
2023/09/11 03:02:46;;;;;;;31.30;22.80;;;18.00;99.90;;;;;;4947713;28;20114;-76
2023/09/11 03:05:11;;;;;;;30.13;22.30;;;18.20;99.90;;;;;;4952404;28;20556;-76
2023/09/11 03:07:37;;;;;;;31.30;23.60;;;18.00;99.90;;;;;;4949679;28;20069;-77
2023/09/11 03:10:03;;;;;;;34.35;23.50;;;18.00;99.90;;;;;;4943966;28;20050;-75
2023/09/11 03:12:29;;;;;;;31.55;23.05;;;17.90;99.90;;;;;;4951115;28;20066;-77
2023/09/11 03:14:58;;;;;;;29.27;22.42;;;17.90;99.90;;;;;;4949529;28;20058;-78
2023/09/11 03:17:24;;;;;;;31.00;23.60;;;18.00;99.90;;;;;;4953046;28;20066;-76
2023/09/11 03:19:50;;;;;;;36.80;23.50;;;17.90;99.90;;;;;;4949397;28;20060;-76
2023/09/11 03:22:16;;;;;;;30.80;22.95;;;;;;;;;;4957757;28;20050;-75
2023/09/11 03:24:42;;;;;;;34.22;24.52;;;;;;;;;;4953287;28;20511;-76
2023/09/11 03:27:08;;;;;;;32.33;24.40;;;;;;;;;;4956131;28;20608;-77
2023/09/11 03:29:34;;;;;;;30.27;25.27;;;17.70;99.90;;;;;;4937115;28;20149;-78
2023/09/11 03:32:00;;;;;;;33.92;25.38;;;;;;;;;;4954342;28;20503;-77
2023/09/11 03:34:25;;;;;;;35.03;24.52;;;18.20;99.90;;;;;;4970093;28;20073;-76
2023/09/11 03:36:51;;;;;;;30.33;25.48;;;17.90;99.90;;;;;;4942301;28;20051;-75
2023/09/11 03:39:17;;;;;;;38.88;25.52;;;17.80;99.90;;;;;;4956275;28;20101;-77
2023/09/11 03:41:42;;;;;;;34.60;25.73;;;17.80;99.90;;;;;;4957578;28;20057;-76
2023/09/11 03:44:08;;;;;;;30.05;24.83;;;17.90;99.90;;;;;;4957088;28;20087;-78
2023/09/11 03:46:34;;;;;;;37.33;25.75;;;17.90;99.90;;;;;;4944814;28;20054;-77
2023/09/11 03:48:59;;;;;;;35.95;25.42;;;17.80;99.90;;;;;;4950291;28;20136;-76
2023/09/11 03:51:25;;;;;;;33.80;25.92;;;17.80;99.90;;;;;;4955985;28;20481;-78
2023/09/11 03:53:51;;;;;;;39.45;26.60;;;17.70;99.90;;;;;;4950757;28;20054;-78
2023/09/11 03:56:17;;;;;;;32.22;26.02;;;17.70;99.90;;;;;;4954850;28;20058;-77
2023/09/11 03:58:44;;;;;;;33.40;25.42;;;17.60;99.90;;;;;;4945854;28;20054;-75
2023/09/11 04:01:10;;;;;;;36.22;26.88;;;17.70;99.90;;;;;;4946774;28;20813;-77
2023/09/11 04:03:35;;;;;;;34.60;25.98;;;17.70;99.90;;;;;;4946439;28;20074;-77
2023/09/11 04:06:01;;;;;;;36.70;27.10;;;17.70;99.90;;;;;;4953944;28;20054;-76
2023/09/11 04:08:27;;;;;;;39.72;27.95;;;17.70;99.90;;;;;;4955625;28;20117;-77
2023/09/11 04:10:53;;;;;;;40.22;27.67;;;;;;;;;;4941467;28;20066;-77
2023/09/11 04:13:19;;;;;;;42.15;28.08;;;17.70;99.90;;;;;;4963800;28;20061;-78
2023/09/11 04:15:44;;;;;;;38.63;27.20;;;17.70;99.90;;;;;;4964445;28;20062;-77
2023/09/11 04:18:11;;;;;;;38.05;27.70;;;;;;;;;;4953648;28;20098;-77
2023/09/11 04:20:37;;;;;;;37.53;25.67;;;;;;;;;;4957172;28;20057;-81
2023/09/11 04:23:03;;;;;;;35.75;27.48;;;17.60;99.90;;;;;;4951546;28;20058;-76
2023/09/11 04:25:29;;;;;;;38.40;27.13;;;17.70;99.90;;;;;;4945105;28;20051;-78
2023/09/11 04:27:55;;;;;;;30.30;26.85;;;17.70;99.90;;;;;;4952812;28;20098;-80
2023/09/11 04:30:22;;;;;;;37.83;27.38;;;17.70;99.90;;;;;;4952463;28;20161;-78
2023/09/11 04:32:48;;;;;;;36.83;26.92;;;17.70;99.90;;;;;;4951072;28;20066;-77
2023/09/11 04:35:14;;;;;;;35.70;27.73;;;17.60;99.90;;;;;;4947447;28;20768;-77
2023/09/11 04:37:40;;;;;;;40.67;28.63;;;17.60;99.90;;;;;;4940027;28;20154;-77
2023/09/11 04:40:06;;;;;;;41.28;28.15;;;17.60;99.90;;;;;;4956517;28;20054;-79
2023/09/11 04:42:32;;;;;;;36.72;28.33;;;17.60;99.90;;;;;;4956734;28;20141;-80
2023/09/11 04:44:59;;;;;;;33.67;28.00;;;17.60;99.90;;;;;;4950119;28;20073;-80
2023/09/11 04:47:31;;;;;;;38.95;29.73;;;17.60;99.90;;;;;;4953814;28;20050;-76
2023/09/11 04:49:57;;;;;;;;;;;17.60;99.90;;;;;;4940945;28;20047;-78
2023/09/11 04:52:27;;;;;;;41.40;27.02;;;17.50;99.90;;;;;;4941148;28;19925;-78
2023/09/11 04:54:53;;;;;;;39.92;27.95;;;17.70;99.90;;;;;;4938026;28;20063;-77
2023/09/11 04:57:18;;;;;;;39.95;27.70;;;17.60;99.90;;;;;;4943526;28;20674;-76
2023/09/11 04:59:44;;;;;;;34.97;29.65;;;17.60;99.90;;;;;;4948280;28;20083;-77
2023/09/11 05:02:10;;;;;;;38.15;28.90;;;17.60;99.90;;;;;;4945002;28;20054;-77
2023/09/11 05:04:36;;;;;;;36.40;27.98;;;17.60;99.90;;;;;;4955673;28;20273;-78
2023/09/11 05:07:02;;;;;;;35.33;26.60;;;17.60;99.90;;;;;;4945619;28;20066;-77
2023/09/11 05:09:30;;;;;;;37.30;27.05;;;17.60;99.90;;;;;;4941092;28;20054;-77
2023/09/11 05:11:56;;;;;;;41.53;28.73;;;17.70;99.90;;;;;;4936659;28;20113;-77
2023/09/11 05:14:22;;;;;;;33.65;29.17;;;17.70;99.90;;;;;;4957056;28;20613;-77
2023/09/11 05:16:47;;;;;;;37.47;27.70;;;17.70;99.90;;;;;;4938074;28;20111;-79
2023/09/11 05:19:13;;;;;;;40.38;28.95;;;17.80;99.90;;;;;;4951534;28;20062;-77
2023/09/11 05:21:39;;;;;;;37.33;28.15;;;17.80;99.90;;;;;;4937745;28;20069;-76
2023/09/11 05:24:04;;;;;;;39.40;28.17;;;17.80;99.90;;;;;;4949921;28;20527;-77
2023/09/11 05:26:31;;;;;;;40.83;26.63;;;17.90;99.90;;;;;;4943989;28;20138;-76
2023/09/11 05:28:56;;;;;;;40.10;27.75;;;17.90;99.90;;;;;;4956220;28;20094;-77
2023/09/11 05:31:22;;;;;;;39.58;28.15;;;17.90;99.90;;;;;;4948329;28;20159;-77
2023/09/11 05:33:47;;;;;;;35.75;26.10;;;18.00;99.90;;;;;;4948328;28;20160;-79
2023/09/11 05:36:13;;;;;;;35.63;26.35;;;18.00;99.90;;;;;;4948663;28;20684;-77
2023/09/11 05:38:40;;;;;;;31.58;25.65;;;18.10;99.90;;;;;;4952772;28;20081;-77
2023/09/11 05:41:06;;;;;;;35.05;26.55;;;18.10;99.90;;;;;;4945178;28;20814;-76
2023/09/11 05:43:32;;;;;;;33.33;26.42;;;18.20;99.90;;;;;;4954134;28;20124;-76
2023/09/11 05:45:57;;;;;;;37.05;25.83;;;18.30;99.90;;;;;;4950661;28;20058;-83
2023/09/11 05:48:23;;;;;;;42.03;25.20;;;18.30;99.90;;;;;;4942109;28;20389;-76
2023/09/11 05:50:49;;;;;;;36.78;24.73;;;17.00;99.90;;;;;;4957696;28;20054;-80
2023/09/11 05:53:15;;;;;;;34.10;23.55;;;18.60;99.90;;;;;;4956763;28;20055;-76
2023/09/11 05:55:40;;;;;;;37.65;24.40;;;19.00;99.90;;;;;;4942624;28;20587;-79
2023/09/11 05:58:07;;;;;;;31.75;22.17;;;19.50;99.90;;;;;;4954223;28;20066;-75
2023/09/11 06:00:32;;;;;;;30.98;22.65;;;19.80;99.90;;;;;;4953503;28;20670;-78
2023/09/11 06:02:58;;;;;;;27.88;21.25;;;20.20;99.90;;;;;;4956541;28;20062;-78
2023/09/11 06:05:25;;;;;;;32.88;21.35;;;20.70;99.90;;;;;;4958592;28;20586;-75
2023/09/11 06:07:51;;;;;;;32.17;18.88;;;21.00;99.90;;;;;;4955071;28;20153;-76
2023/09/11 06:10:17;;;;;;;23.95;18.38;;;21.60;99.90;;;;;;4952445;28;20341;-80
2023/09/11 06:12:42;;;;;;;33.00;18.80;;;22.20;99.90;;;;;;4956731;28;20840;-75
2023/09/11 06:15:08;;;;;;;27.75;18.23;;;22.70;99.90;;;;;;4957143;28;20062;-76
2023/09/11 06:17:34;;;;;;;33.75;18.27;;;23.30;99.90;;;;;;4954911;28;20054;-74
2023/09/11 06:20:00;;;;;;;27.83;16.95;;;23.70;99.90;;;;;;4948389;28;20047;-75
2023/09/11 06:22:26;;;;;;;29.15;16.98;;;24.10;99.90;;;;;;4944411;28;20059;-77
2023/09/11 06:24:52;;;;;;;25.95;16.60;;;24.40;99.90;;;;;;4952149;28;20076;-75
2023/09/11 06:27:18;;;;;;;26.25;15.88;;;24.20;99.90;;;;;;4949629;28;20054;-76
2023/09/11 06:29:44;;;;;;;33.53;17.48;;;24.10;99.90;;;;;;4949055;28;20086;-76
2023/09/11 06:32:12;;;;;;;31.30;15.50;;;24.40;99.90;;;;;;4946918;28;20202;-77
2023/09/11 06:34:38;;;;;;;24.48;15.75;;;24.10;99.90;;;;;;4933063;28;20066;-78
2023/09/11 06:37:06;;;;;;;29.75;16.60;;;23.80;99.90;;;;;;4927566;28;20527;-75
2023/09/11 06:39:31;;;;;;;32.35;15.82;;;23.70;99.90;;;;;;4948995;28;20503;-76
2023/09/11 06:41:57;;;;;;;24.75;15.93;;;23.60;99.90;;;;;;4944285;28;20055;-78
2023/09/11 06:44:23;;;;;;;23.02;15.38;;;23.50;99.90;;;;;;4957499;28;20057;-79
2023/09/11 06:46:49;;;;;;;34.70;16.20;;;23.30;99.90;;;;;;4958414;28;20050;-81
2023/09/11 06:49:14;;;;;;;26.48;17.17;;;23.20;99.90;;;;;;4957058;28;20062;-75
2023/09/11 06:51:40;;;;;;;26.95;16.17;;;23.00;99.90;;;;;;4951082;28;20058;-78
2023/09/11 06:54:09;;;;;;;29.83;17.40;;;22.90;99.90;;;;;;4931310;28;20094;-77
2023/09/11 06:56:36;;;;;;;24.00;15.60;;;22.70;99.90;;;;;;4944022;28;20944;-75
2023/09/11 06:59:02;;;;;;;27.08;16.73;;;22.60;99.90;;;;;;4953422;28;20063;-75
2023/09/11 07:01:28;;;;;;;28.60;15.85;;;20.80;99.90;;;;;;4950501;28;20061;-80
2023/09/11 07:03:54;;;;;;;25.10;16.00;;;22.60;99.90;;;;;;4953403;28;20065;-75
2023/09/11 07:06:20;;;;;;;30.85;16.58;;;;;;;;;;4950927;28;20459;-76
2023/09/11 07:08:46;;;;;;;28.88;17.27;;;22.50;99.90;;;;;;4956750;28;20089;-76
2023/09/11 07:11:12;;;;;;;22.75;15.25;;;;;;;;;;4952787;28;20130;-78
2023/09/11 07:13:38;;;;;;;27.27;16.00;;;22.50;99.90;;;;;;4939791;28;20050;-76
2023/09/11 07:16:04;;;;;;;27.50;16.30;;;22.60;99.90;;;;;;4953295;28;20046;-79
2023/09/11 07:18:31;;;;;;;24.55;14.57;;;22.60;99.90;;;;;;4954347;28;20739;-75
2023/09/11 07:20:57;;;;;;;22.30;13.55;;;22.60;99.90;;;;;;4955889;28;20081;-80
2023/09/11 07:23:27;;;;;;;19.75;13.80;;;22.60;99.90;;;;;;4954843;28;20062;-76
2023/09/11 07:25:55;;;;;;;27.48;14.23;;;22.60;99.90;;;;;;4936516;28;20077;-73
2023/09/11 07:28:24;;;;;;;27.60;15.13;;;22.70;99.90;;;;;;4949092;28;20444;-76
2023/09/11 07:30:50;;;;;;;22.27;13.40;;;22.70;99.90;;;;;;4951550;28;20142;-77
2023/09/11 07:33:15;;;;;;;24.58;15.25;;;22.80;99.90;;;;;;4972569;28;20071;-82
2023/09/11 07:35:41;;;;;;;28.00;15.30;;;22.80;99.90;;;;;;4952967;28;20198;-76
2023/09/11 07:38:07;;;;;;;27.02;14.48;;;22.80;99.90;;;;;;4953429;28;20141;-78
2023/09/11 07:40:33;;;;;;;22.42;14.07;;;22.90;99.90;;;;;;4944542;28;20530;-76
2023/09/11 07:42:58;;;;;;;26.50;14.10;;;22.90;99.90;;;;;;4954027;28;20054;-76
2023/09/11 07:45:24;;;;;;;20.60;14.10;;;23.40;99.90;;;;;;4953455;28;20062;-76
2023/09/11 07:47:50;;;;;;;25.55;15.85;;;;;;;;;;4950246;28;20088;-78
2023/09/11 07:50:17;;;;;;;24.90;14.43;;;;;;;;;;4956304;28;20069;-76
2023/09/11 07:52:42;;;;;;;18.42;13.57;;;23.20;99.90;;;;;;4944864;28;20054;-76
2023/09/11 07:55:08;;;;;;;24.08;13.25;;;23.30;99.90;;;;;;4939609;28;20057;-77
2023/09/11 07:57:34;;;;;;;26.88;14.43;;;23.40;99.90;;;;;;4949580;28;20770;-78
2023/09/11 08:00:04;;;;;;;19.58;13.13;;;23.50;99.90;;;;;;4951698;28;20397;-76
2023/09/11 08:02:30;;;;;;;28.75;15.25;;;23.60;99.90;;;;;;4950895;28;20055;-76
2023/09/11 08:04:56;;;;;;;21.67;13.82;;;23.60;99.90;;;;;;4947266;28;20085;-77
2023/09/11 08:07:22;;;;;;;24.30;13.75;;;23.70;99.90;;;;;;4948867;28;20209;-75
2023/09/11 08:09:48;;;;;;;24.95;12.88;;;23.70;99.90;;;;;;4954635;28;20054;-77
2023/09/11 08:12:15;;;;;;;19.90;9.52;;;23.90;99.90;;;;;;4953027;28;20112;-76
2023/09/11 08:14:41;;;;;;;22.75;14.55;;;24.00;99.90;;;;;;4952859;28;20050;-75
2023/09/11 08:17:07;;;;;;;17.35;9.98;;;24.10;99.90;;;;;;4940192;28;20058;-81
2023/09/11 08:19:32;;;;;;;21.25;13.43;;;24.50;99.90;;;;;;4953231;28;20050;-75
2023/09/11 08:21:58;;;;;;;25.58;12.18;;;24.70;99.90;;;;;;4952738;28;20064;-75
2023/09/11 08:24:24;;;;;;;19.05;11.50;;;25.70;99.90;;;;;;4951617;28;20043;-74
2023/09/11 08:26:50;;;;;;;21.75;10.32;;;27.00;99.90;;;;;;4952068;28;20062;-74
2023/09/11 08:29:17;;;;;;;24.75;10.77;;;28.20;99.90;;;;;;4951744;28;20065;-73
2023/09/11 08:31:43;;;;;;;19.30;8.80;;;29.40;99.90;;;;;;4954565;28;20121;-74
2023/09/11 08:34:09;;;;;;;19.90;10.07;;;30.10;98.40;;;;;;4947849;28;20363;-74
2023/09/11 08:36:37;;;;;;;17.77;8.75;;;30.40;96.90;;;;;;4954102;28;20586;-74
2023/09/11 08:39:03;;;;;;;26.48;8.60;;;30.60;95.90;;;;;;4953528;28;20058;-75
2023/09/11 08:41:30;;;;;;;16.25;7.38;;;31.10;95.00;;;;;;4945661;28;20066;-74
2023/09/11 08:43:56;;;;;;;16.90;7.90;;;31.60;93.90;;;;;;4952348;28;20077;-75
2023/09/11 08:46:23;;;;;;;14.73;7.78;;;32.20;92.90;;;;;;4954026;28;20054;-75
2023/09/11 08:48:53;;;;;;;14.30;7.75;;;32.70;91.70;;;;;;4945852;28;20058;-73
2023/09/11 08:51:38;;;;;;;17.33;8.10;;;33.10;90.30;;;;;;4949801;28;20153;-77
2023/09/11 08:54:04;;;;;;;10.75;6.18;;;33.40;89.20;;;;;;4956258;28;20093;-74
2023/09/11 08:56:31;;;;;;;10.80;5.85;;;34.10;86.80;;;;;;4944073;28;20055;-75
2023/09/11 08:58:58;;;;;;;16.35;7.00;;;34.00;85.60;;;;;;4947761;28;20057;-73
2023/09/11 09:01:25;;;;;;;20.42;7.63;;;34.30;83.80;;;;;;4952304;28;20054;-75
2023/09/11 09:03:52;;;;;;;8.68;4.95;;;34.40;82.30;;;;;;4952086;28;20484;-76
2023/09/11 09:06:19;;;;;;;10.13;5.25;;;34.40;81.00;;;;;;4948792;28;20067;-75
2023/09/11 09:08:45;;;;;;;10.05;4.90;;;34.50;79.40;;;;;;4950601;28;20462;-75
2023/09/11 09:11:11;;;;;;;14.10;5.82;;;34.70;82.60;;;;;;4950994;28;20043;-78
2023/09/11 09:13:38;;;;;;;11.25;6.00;;;34.70;84.90;;;;;;4949263;28;20083;-75
2023/09/11 09:16:04;;;;;;;12.98;5.03;;;34.80;78.60;;;;;;4953375;28;20075;-75
2023/09/11 09:18:30;;;;;;;13.65;4.95;;;34.80;78.30;;;;;;4938783;28;20809;-74
2023/09/11 09:20:56;;;;;;;12.15;5.28;;;35.00;77.20;;;;;;4957133;28;20059;-77
2023/09/11 09:23:35;;;;;;;15.15;6.22;;;35.00;76.10;;;;;;4953231;28;21337;-76
2023/09/11 09:26:06;;;;;;;9.88;4.68;;;35.10;76.00;;;;;;4955083;28;20057;-78
2023/09/11 09:28:33;;;;;;;12.57;4.82;;;35.10;74.90;;;;;;4969362;28;20058;-81
2023/09/11 09:30:59;;;;;;;10.82;4.53;;;35.20;75.10;;;;;;4939712;28;20133;-80
2023/09/11 09:33:26;;;;;;;10.50;4.45;;;35.30;74.40;;;;;;4951440;28;20060;-76
2023/09/11 09:35:52;;;;;;;11.00;4.70;;;35.40;73.80;;;;;;4941646;28;20751;-80
2023/09/11 09:38:21;;;;;;;9.80;4.80;;;35.30;74.10;;;;;;4937951;28;20070;-77
2023/09/11 09:40:49;;;;;;;10.05;4.88;;;35.20;73.60;;;;;;4950432;28;20054;-75
2023/09/11 09:43:16;;;;;;;15.43;4.53;;;35.10;73.80;;;;;;4948726;28;20050;-76
2023/09/11 09:45:42;;;;;;;5.75;3.88;;;34.90;74.30;;;;;;4956721;28;20089;-76
2023/09/11 09:48:16;;;;;;;7.63;4.10;;;34.70;73.50;;;;;;4954489;28;20133;-76
2023/09/11 09:50:53;;;;;;;11.52;4.75;;;34.60;72.70;;;;;;4952363;28;20671;-77
2023/09/11 09:53:28;;;;;;;9.13;4.05;;;34.50;72.70;;;;;;4952248;28;20112;-75
2023/09/11 09:55:56;;;;;;;14.90;5.47;;;34.60;73.30;;;;;;4953788;28;20058;-76
2023/09/11 09:58:28;;;;;;;8.05;4.47;;;34.60;75.40;;;;;;4953295;28;22095;-74
2023/09/11 10:01:02;;;;;;;6.88;3.65;;;34.70;73.70;;;;;;4952961;28;20137;-78
2023/09/11 10:03:36;;;;;;;8.63;3.97;;;34.70;72.40;;;;;;4940070;28;20056;-75
2023/09/11 10:06:06;;;;;;;9.43;4.15;;;34.60;73.20;;;;;;4941037;28;20054;-74
2023/09/11 10:08:32;;;;;;;11.85;4.82;;;34.70;72.40;;;;;;4954458;28;20893;-76
2023/09/11 10:10:58;;;;;;;11.40;4.00;;;34.80;71.50;;;;;;4949161;28;20073;-76
2023/09/11 10:13:27;;;;;;;9.75;4.10;;;34.90;71.60;;;;;;4954553;28;20093;-74
2023/09/11 10:15:56;;;;;;;9.00;4.10;;;35.00;71.10;;;;;;4950150;28;20054;-77
2023/09/11 10:18:22;;;;;;;17.60;5.10;;;35.00;70.00;;;;;;4954981;28;20324;-76
2023/09/11 10:20:50;;;;;;;16.33;5.32;;;35.00;69.90;;;;;;4951528;28;20096;-77
2023/09/11 10:23:16;;;;;;;4.68;3.30;;;35.00;70.90;;;;;;4969395;28;20061;-78
2023/09/11 10:25:53;;;;;;;6.00;3.78;;;34.90;69.80;;;;;;4953868;28;20058;-76
2023/09/11 10:28:32;;;;;;;7.97;4.72;;;34.70;69.30;;;;;;4955947;28;20142;-77
2023/09/11 10:31:14;;;;;;;9.00;4.32;;;34.30;70.20;;;;;;4954205;28;20181;-77
2023/09/11 10:33:41;;;;;;;8.90;4.22;;;33.60;70.60;;;;;;4936015;28;20536;-76
2023/09/11 10:36:14;;;;;;;8.40;4.07;;;33.30;71.20;;;;;;4947699;28;20791;-76
2023/09/11 10:38:41;;;;;;;6.85;3.53;;;33.20;71.20;;;;;;4950918;28;20136;-77
2023/09/11 10:41:08;;;;;;;8.60;4.93;;;32.90;71.40;;;;;;4947949;28;20515;-77
2023/09/11 10:43:34;;;;;;;8.18;4.93;;;32.50;74.10;;;;;;4950368;28;20112;-77
2023/09/11 10:46:21;;;;;;;6.90;4.32;;;32.00;74.10;;;;;;4956856;28;20157;-76
2023/09/11 10:48:51;;;;;;;8.27;5.00;;;31.40;75.20;;;;;;4950816;28;20992;-75
2023/09/11 10:51:17;;;;;;;11.15;6.20;;;29.40;74.90;;;;;;4947659;28;20145;-75
2023/09/11 10:53:47;;;;;;;11.40;6.20;;;30.50;77.60;;;;;;4955973;28;20124;-77
2023/09/11 10:56:13;;;;;;;7.45;4.50;;;30.20;79.10;;;;;;4947062;28;20057;-77
2023/09/11 10:58:40;;;;;;;10.95;6.13;;;29.90;79.00;;;;;;4951957;28;20423;-75
2023/09/11 11:01:06;;;;;;;10.85;4.85;;;29.80;79.70;;;;;;4952726;28;20061;-75
2023/09/11 11:03:33;;;;;;;10.85;5.35;;;29.70;79.80;;;;;;4954589;28;20604;-76
2023/09/11 11:05:59;;;;;;;6.75;4.85;;;29.50;80.10;;;;;;4950779;28;20114;-79
2023/09/11 11:08:26;;;;;;;9.82;5.03;;;29.50;80.40;;;;;;4945441;28;20868;-75
2023/09/11 11:10:55;;;;;;;12.38;6.35;;;29.40;81.20;;;;;;4948187;28;20698;-75
2023/09/11 11:13:22;;;;;;;11.73;5.25;;;29.20;81.20;;;;;;4963438;28;20073;-75
2023/09/11 11:15:48;;;;;;;10.75;5.43;;;29.10;81.30;;;;;;4955056;28;20050;-77
2023/09/11 11:18:27;;;;;;;6.70;5.13;;;29.00;82.40;;;;;;4944537;28;20055;-79
2023/09/11 11:21:04;;;;;;;11.32;5.47;;;28.80;82.90;;;;;;4940996;28;20059;-77
2023/09/11 11:23:35;;;;;;;7.57;5.90;;;28.70;83.20;;;;;;4949471;28;20177;-76
2023/09/11 11:26:05;;;;;;;8.50;5.65;;;28.50;83.70;;;;;;4948140;28;20113;-77
2023/09/11 11:28:39;;;;;;;9.13;5.38;;;28.40;85.00;;;;;;4955101;28;20058;-77
2023/09/11 11:31:07;;;;;;;12.52;6.35;;;28.20;86.80;;;;;;4947991;28;20054;-76
2023/09/11 11:33:36;;;;;;;10.00;5.22;;;28.10;87.20;;;;;;4950459;28;20058;-75
2023/09/11 11:36:05;;;;;;;8.15;5.50;;;28.00;87.60;;;;;;4942768;28;20066;-76
2023/09/11 11:38:30;;;;;;;10.05;5.55;;;28.00;88.00;;;;;;4953081;28;20077;-77
2023/09/11 11:40:57;;;;;;;7.07;4.75;;;27.90;88.20;;;;;;4954019;28;20154;-75
2023/09/11 11:43:23;;;;;;;11.02;5.57;;;27.90;88.50;;;;;;4934712;28;20496;-77
2023/09/11 11:45:49;;;;;;;11.50;6.28;;;27.80;88.40;;;;;;4948973;28;20053;-76
2023/09/11 11:48:15;;;;;;;11.18;6.45;;;27.80;89.90;;;;;;4950406;28;20121;-76
2023/09/11 11:50:42;;;;;;;12.18;6.03;;;27.80;90.40;;;;;;4951551;28;20058;-77
2023/09/11 11:53:16;;;;;;;10.30;5.93;;;27.80;89.70;;;;;;4940312;28;20071;-75
2023/09/11 11:55:43;;;;;;;6.72;4.97;;;27.60;90.70;;;;;;4944401;28;20059;-75
2023/09/11 11:58:18;;;;;;;9.88;6.13;;;27.50;90.90;;;;;;4956887;28;20137;-76
2023/09/11 12:01:00;;;;;;;9.02;6.28;;;24.20;87.00;;;;;;4956036;28;20066;-77
2023/09/11 12:03:29;;;;;;;9.27;5.40;;;27.70;90.10;;;;;;4954871;28;20054;-75
2023/09/11 12:05:59;;;;;;;11.35;6.45;;;27.40;92.20;;;;;;4954209;28;20138;-76
2023/09/11 12:08:25;;;;;;;11.47;6.20;;;27.60;90.60;;;;;;4944966;28;20129;-74
2023/09/11 12:10:52;;;;;;;11.88;6.32;;;27.70;90.60;;;;;;4942070;28;20690;-75
2023/09/11 12:13:23;;;;;;;11.10;6.63;;;27.60;90.90;;;;;;4952498;28;20062;-74
2023/09/11 12:15:52;;;;;;;;;;;27.50;91.20;;;;;;4957005;28;20066;-74
2023/09/11 12:18:19;;;;;;;17.70;9.90;;;27.50;91.10;;;;;;4946154;28;19984;-75
2023/09/11 12:20:58;;;;;;;10.18;6.70;;;27.50;91.40;;;;;;4933541;28;20632;-74
2023/09/11 12:23:25;;;;;;;5.80;4.95;;;27.50;91.20;;;;;;4957642;28;20104;-75
2023/09/11 12:25:51;;;;;;;9.38;6.47;;;27.50;91.80;;;;;;4954725;28;20128;-76
2023/09/11 12:28:18;;;;;;;13.02;7.53;;;27.40;91.30;;;;;;4952284;28;20064;-75
2023/09/11 12:30:45;;;;;;;10.05;6.18;;;27.20;91.70;;;;;;4953576;28;20047;-73
2023/09/11 12:33:16;;;;;;;7.88;5.82;;;27.40;92.00;;;;;;4946506;28;20547;-74
2023/09/11 12:35:43;;;;;;;6.30;5.05;;;27.40;91.60;;;;;;4945919;28;20975;-75
2023/09/11 12:38:10;;;;;;;13.65;7.00;;;27.20;91.50;;;;;;4944726;28;20054;-75